sensor_id;sensor_type;location;lat;lon;timestamp;temperature;humidity
31979;DHT22;18502;43.574;1.276;2022-09-09T00:01:01;19.80;97.70
31979;DHT22;18502;43.574;1.276;2022-09-09T00:03:41;19.70;97.40
31979;DHT22;18502;43.574;1.276;2022-09-09T00:06:21;19.70;97.60
31979;DHT22;18502;43.574;1.276;2022-09-09T00:11:24;19.70;97.20
31979;DHT22;18502;43.574;1.276;2022-09-09T00:13:57;19.60;97.30
31979;DHT22;18502;43.574;1.276;2022-09-09T00:16:28;19.60;97.30
31979;DHT22;18502;43.574;1.276;2022-09-09T00:24:46;19.60;97.00
31979;DHT22;18502;43.574;1.276;2022-09-09T00:27:31;19.50;97.30
31979;DHT22;18502;43.574;1.276;2022-09-09T00:30:19;19.40;97.60
31979;DHT22;18502;43.574;1.276;2022-09-09T00:32:58;19.40;97.70
31979;DHT22;18502;43.574;1.276;2022-09-09T00:35:32;19.50;97.70
31979;DHT22;18502;43.574;1.276;2022-09-09T00:38:12;19.60;97.40
31979;DHT22;18502;43.574;1.276;2022-09-09T00:43:36;19.70;96.70
31979;DHT22;18502;43.574;1.276;2022-09-09T00:51:31;19.80;97.30
31979;DHT22;18502;43.574;1.276;2022-09-09T00:56:39;19.80;97.60
31979;DHT22;18502;43.574;1.276;2022-09-09T00:59:32;19.60;97.70
31979;DHT22;18502;43.574;1.276;2022-09-09T01:02:07;19.60;97.20
31979;DHT22;18502;43.574;1.276;2022-09-09T01:04:38;19.50;97.10
31979;DHT22;18502;43.574;1.276;2022-09-09T01:07:19;19.50;96.80
31979;DHT22;18502;43.574;1.276;2022-09-09T01:10:05;19.50;96.70
31979;DHT22;18502;43.574;1.276;2022-09-09T01:12:40;19.60;96.40
31979;DHT22;18502;43.574;1.276;2022-09-09T01:15:12;19.60;96.40
31979;DHT22;18502;43.574;1.276;2022-09-09T01:17:50;19.70;96.40
31979;DHT22;18502;43.574;1.276;2022-09-09T01:20:29;19.70;96.10
31979;DHT22;18502;43.574;1.276;2022-09-09T01:28:34;19.60;96.40
31979;DHT22;18502;43.574;1.276;2022-09-09T01:31:04;19.60;96.70
31979;DHT22;18502;43.574;1.276;2022-09-09T01:33:31;19.60;97.00
31979;DHT22;18502;43.574;1.276;2022-09-09T01:36:09;19.60;97.00
31979;DHT22;18502;43.574;1.276;2022-09-09T01:38:36;19.50;97.00
31979;DHT22;18502;43.574;1.276;2022-09-09T01:41:02;19.50;97.10
31979;DHT22;18502;43.574;1.276;2022-09-09T01:43:29;19.50;97.00
31979;DHT22;18502;43.574;1.276;2022-09-09T01:45:58;19.40;97.00
31979;DHT22;18502;43.574;1.276;2022-09-09T01:48:25;19.40;96.80
31979;DHT22;18502;43.574;1.276;2022-09-09T01:50:51;19.30;96.80
31979;DHT22;18502;43.574;1.276;2022-09-09T01:53:18;19.40;97.00
31979;DHT22;18502;43.574;1.276;2022-09-09T02:01:39;19.50;96.40
31979;DHT22;18502;43.574;1.276;2022-09-09T02:06:57;19.50;96.30
31979;DHT22;18502;43.574;1.276;2022-09-09T02:09:24;19.50;96.30
31979;DHT22;18502;43.574;1.276;2022-09-09T02:11:57;19.50;96.40
31979;DHT22;18502;43.574;1.276;2022-09-09T02:14:31;19.40;96.60
31979;DHT22;18502;43.574;1.276;2022-09-09T02:17:13;19.40;96.50
31979;DHT22;18502;43.574;1.276;2022-09-09T02:19:49;19.50;96.40
31979;DHT22;18502;43.574;1.276;2022-09-09T02:22:20;19.50;96.30
31979;DHT22;18502;43.574;1.276;2022-09-09T02:24:47;19.40;96.40
31979;DHT22;18502;43.574;1.276;2022-09-09T02:27:14;19.50;96.40
31979;DHT22;18502;43.574;1.276;2022-09-09T02:29:42;19.50;96.30
31979;DHT22;18502;43.574;1.276;2022-09-09T02:32:21;19.50;96.10
31979;DHT22;18502;43.574;1.276;2022-09-09T02:34:55;19.40;96.40
31979;DHT22;18502;43.574;1.276;2022-09-09T02:37:24;19.20;96.60
31979;DHT22;18502;43.574;1.276;2022-09-09T02:39:54;19.10;96.70
31979;DHT22;18502;43.574;1.276;2022-09-09T02:42:20;19.10;96.60
31979;DHT22;18502;43.574;1.276;2022-09-09T02:44:46;19.10;96.50
31979;DHT22;18502;43.574;1.276;2022-09-09T02:53:17;19.20;96.70
31979;DHT22;18502;43.574;1.276;2022-09-09T02:56:05;19.20;96.60
31979;DHT22;18502;43.574;1.276;2022-09-09T02:58:35;19.20;96.60
31979;DHT22;18502;43.574;1.276;2022-09-09T03:01:01;19.30;96.80
31979;DHT22;18502;43.574;1.276;2022-09-09T03:03:28;19.30;96.80
31979;DHT22;18502;43.574;1.276;2022-09-09T03:05:54;19.30;96.60
31979;DHT22;18502;43.574;1.276;2022-09-09T03:08:20;19.30;96.70
31979;DHT22;18502;43.574;1.276;2022-09-09T03:10:46;19.30;96.60
31979;DHT22;18502;43.574;1.276;2022-09-09T03:13:11;19.30;96.60
31979;DHT22;18502;43.574;1.276;2022-09-09T03:15:41;19.30;96.60
31979;DHT22;18502;43.574;1.276;2022-09-09T03:18:07;19.30;96.70
31979;DHT22;18502;43.574;1.276;2022-09-09T03:20:33;19.30;96.80
31979;DHT22;18502;43.574;1.276;2022-09-09T03:22:59;19.30;96.70
31979;DHT22;18502;43.574;1.276;2022-09-09T03:25:25;19.20;96.70
31979;DHT22;18502;43.574;1.276;2022-09-09T03:27:52;19.20;96.90
31979;DHT22;18502;43.574;1.276;2022-09-09T03:30:21;19.20;96.90
31979;DHT22;18502;43.574;1.276;2022-09-09T03:32:47;19.20;97.00
31979;DHT22;18502;43.574;1.276;2022-09-09T03:35:13;19.20;97.00
31979;DHT22;18502;43.574;1.276;2022-09-09T03:37:39;19.30;97.00
31979;DHT22;18502;43.574;1.276;2022-09-09T03:40:05;19.30;97.10
31979;DHT22;18502;43.574;1.276;2022-09-09T03:42:31;19.20;97.10
31979;DHT22;18502;43.574;1.276;2022-09-09T03:44:57;19.20;97.40
31979;DHT22;18502;43.574;1.276;2022-09-09T03:47:24;19.10;97.70
31979;DHT22;18502;43.574;1.276;2022-09-09T03:49:50;19.20;97.50
31979;DHT22;18502;43.574;1.276;2022-09-09T03:52:16;19.20;97.40
31979;DHT22;18502;43.574;1.276;2022-09-09T03:54:42;19.20;97.40
31979;DHT22;18502;43.574;1.276;2022-09-09T03:57:09;19.30;97.40
31979;DHT22;18502;43.574;1.276;2022-09-09T03:59:35;19.20;97.40
31979;DHT22;18502;43.574;1.276;2022-09-09T04:02:01;19.10;97.50
31979;DHT22;18502;43.574;1.276;2022-09-09T04:04:27;19.10;97.80
31979;DHT22;18502;43.574;1.276;2022-09-09T04:06:53;19.10;98.20
31979;DHT22;18502;43.574;1.276;2022-09-09T04:09:19;19.10;98.40
31979;DHT22;18502;43.574;1.276;2022-09-09T04:11:45;19.10;98.80
31979;DHT22;18502;43.574;1.276;2022-09-09T04:14:11;19.10;98.50
31979;DHT22;18502;43.574;1.276;2022-09-09T04:16:38;19.10;98.60
31979;DHT22;18502;43.574;1.276;2022-09-09T04:19:04;19.10;98.50
31979;DHT22;18502;43.574;1.276;2022-09-09T04:21:31;19.00;98.60
31979;DHT22;18502;43.574;1.276;2022-09-09T04:23:56;19.00;98.80
31979;DHT22;18502;43.574;1.276;2022-09-09T04:26:22;19.00;98.50
31979;DHT22;18502;43.574;1.276;2022-09-09T04:28:48;19.00;98.50
31979;DHT22;18502;43.574;1.276;2022-09-09T04:31:19;19.00;98.60
31979;DHT22;18502;43.574;1.276;2022-09-09T04:33:47;18.90;98.70
31979;DHT22;18502;43.574;1.276;2022-09-09T04:36:13;18.90;98.90
31979;DHT22;18502;43.574;1.276;2022-09-09T04:38:39;18.90;98.90
31979;DHT22;18502;43.574;1.276;2022-09-09T04:41:05;18.90;99.10
31979;DHT22;18502;43.574;1.276;2022-09-09T04:43:31;19.00;99.10
31979;DHT22;18502;43.574;1.276;2022-09-09T04:45:57;19.00;99.00
31979;DHT22;18502;43.574;1.276;2022-09-09T04:48:24;19.00;99.00
31979;DHT22;18502;43.574;1.276;2022-09-09T04:50:59;19.00;99.00
31979;DHT22;18502;43.574;1.276;2022-09-09T04:53:25;19.00;99.00
31979;DHT22;18502;43.574;1.276;2022-09-09T04:56:00;19.00;98.90
31979;DHT22;18502;43.574;1.276;2022-09-09T04:58:26;19.00;98.80
31979;DHT22;18502;43.574;1.276;2022-09-09T05:00:52;19.00;98.90
31979;DHT22;18502;43.574;1.276;2022-09-09T05:03:18;19.00;99.10
31979;DHT22;18502;43.574;1.276;2022-09-09T05:05:44;18.90;99.30
31979;DHT22;18502;43.574;1.276;2022-09-09T05:08:11;18.80;99.70
31979;DHT22;18502;43.574;1.276;2022-09-09T05:10:38;18.80;99.90
31979;DHT22;18502;43.574;1.276;2022-09-09T05:13:05;18.70;99.90
31979;DHT22;18502;43.574;1.276;2022-09-09T05:15:32;18.50;99.90
31979;DHT22;18502;43.574;1.276;2022-09-09T05:17:59;18.60;99.90
31979;DHT22;18502;43.574;1.276;2022-09-09T05:20:25;18.70;99.90
31979;DHT22;18502;43.574;1.276;2022-09-09T05:22:55;18.60;99.90
31979;DHT22;18502;43.574;1.276;2022-09-09T05:25:20;18.60;99.90
31979;DHT22;18502;43.574;1.276;2022-09-09T05:27:47;18.60;99.90
31979;DHT22;18502;43.574;1.276;2022-09-09T05:30:14;18.60;99.90
31979;DHT22;18502;43.574;1.276;2022-09-09T05:32:40;18.60;99.90
31979;DHT22;18502;43.574;1.276;2022-09-09T05:35:06;18.50;99.90
31979;DHT22;18502;43.574;1.276;2022-09-09T05:37:32;18.50;99.90
31979;DHT22;18502;43.574;1.276;2022-09-09T05:39:58;18.50;99.90
31979;DHT22;18502;43.574;1.276;2022-09-09T05:42:24;18.30;99.90
31979;DHT22;18502;43.574;1.276;2022-09-09T05:44:49;18.00;99.90
31979;DHT22;18502;43.574;1.276;2022-09-09T05:47:16;17.90;99.90
31979;DHT22;18502;43.574;1.276;2022-09-09T05:49:42;17.80;99.90
31979;DHT22;18502;43.574;1.276;2022-09-09T05:52:08;17.70;99.90
31979;DHT22;18502;43.574;1.276;2022-09-09T05:54:35;17.70;99.90
31979;DHT22;18502;43.574;1.276;2022-09-09T05:57:03;17.80;99.90
31979;DHT22;18502;43.574;1.276;2022-09-09T05:59:29;17.80;99.90
31979;DHT22;18502;43.574;1.276;2022-09-09T06:01:54;18.00;99.90
31979;DHT22;18502;43.574;1.276;2022-09-09T06:04:20;18.20;99.90
31979;DHT22;18502;43.574;1.276;2022-09-09T06:06:47;18.20;99.90
31979;DHT22;18502;43.574;1.276;2022-09-09T06:09:14;18.30;99.90
31979;DHT22;18502;43.574;1.276;2022-09-09T06:11:40;18.30;99.90
31979;DHT22;18502;43.574;1.276;2022-09-09T06:14:07;18.40;99.90
31979;DHT22;18502;43.574;1.276;2022-09-09T06:16:33;18.30;99.90
31979;DHT22;18502;43.574;1.276;2022-09-09T06:18:59;18.30;99.90
31979;DHT22;18502;43.574;1.276;2022-09-09T06:21:33;18.30;99.90
31979;DHT22;18502;43.574;1.276;2022-09-09T06:24:00;18.10;99.90
31979;DHT22;18502;43.574;1.276;2022-09-09T06:26:28;18.00;99.90
31979;DHT22;18502;43.574;1.276;2022-09-09T06:28:55;18.00;99.90
31979;DHT22;18502;43.574;1.276;2022-09-09T06:31:24;18.00;99.90
31979;DHT22;18502;43.574;1.276;2022-09-09T06:33:52;18.20;99.90
31979;DHT22;18502;43.574;1.276;2022-09-09T06:36:20;18.30;99.90
31979;DHT22;18502;43.574;1.276;2022-09-09T06:38:46;18.30;99.90
31979;DHT22;18502;43.574;1.276;2022-09-09T06:41:14;18.40;99.90
31979;DHT22;18502;43.574;1.276;2022-09-09T06:43:40;18.50;99.90
31979;DHT22;18502;43.574;1.276;2022-09-09T06:48:33;18.60;99.90
31979;DHT22;18502;43.574;1.276;2022-09-09T06:51:04;18.50;99.90
31979;DHT22;18502;43.574;1.276;2022-09-09T06:53:32;18.40;99.90
31979;DHT22;18502;43.574;1.276;2022-09-09T06:58:45;19.20;99.90
31979;DHT22;18502;43.574;1.276;2022-09-09T07:01:15;19.00;99.90
31979;DHT22;18502;43.574;1.276;2022-09-09T07:03:42;18.80;99.90
31979;DHT22;18502;43.574;1.276;2022-09-09T07:06:14;18.70;99.90
31979;DHT22;18502;43.574;1.276;2022-09-09T07:08:42;18.40;99.90
31979;DHT22;18502;43.574;1.276;2022-09-09T07:11:09;18.30;99.90
31979;DHT22;18502;43.574;1.276;2022-09-09T07:13:36;18.30;99.90
31979;DHT22;18502;43.574;1.276;2022-09-09T07:16:14;18.30;99.90
31979;DHT22;18502;43.574;1.276;2022-09-09T07:18:40;18.20;99.90
31979;DHT22;18502;43.574;1.276;2022-09-09T07:21:08;18.50;99.90
31979;DHT22;18502;43.574;1.276;2022-09-09T07:23:34;18.40;99.90
31979;DHT22;18502;43.574;1.276;2022-09-09T07:26:11;18.70;99.90
31979;DHT22;18502;43.574;1.276;2022-09-09T07:28:37;18.90;99.90
31979;DHT22;18502;43.574;1.276;2022-09-09T07:31:04;18.70;99.90
31979;DHT22;18502;43.574;1.276;2022-09-09T07:33:32;18.60;99.90
31979;DHT22;18502;43.574;1.276;2022-09-09T07:36:07;18.40;99.90
31979;DHT22;18502;43.574;1.276;2022-09-09T07:38:44;18.40;99.90
31979;DHT22;18502;43.574;1.276;2022-09-09T07:41:14;18.50;99.90
31979;DHT22;18502;43.574;1.276;2022-09-09T07:43:41;18.60;99.90
31979;DHT22;18502;43.574;1.276;2022-09-09T07:46:08;18.30;99.90
31979;DHT22;18502;43.574;1.276;2022-09-09T07:48:35;18.10;99.90
31979;DHT22;18502;43.574;1.276;2022-09-09T07:51:13;18.20;99.90
31979;DHT22;18502;43.574;1.276;2022-09-09T07:53:42;18.20;99.90
31979;DHT22;18502;43.574;1.276;2022-09-09T07:56:13;18.10;99.90
31979;DHT22;18502;43.574;1.276;2022-09-09T07:58:40;18.20;99.90
31979;DHT22;18502;43.574;1.276;2022-09-09T08:01:11;18.10;99.90
31979;DHT22;18502;43.574;1.276;2022-09-09T08:03:38;18.00;99.90
31979;DHT22;18502;43.574;1.276;2022-09-09T08:06:06;17.90;99.90
31979;DHT22;18502;43.574;1.276;2022-09-09T08:08:33;18.10;99.90
31979;DHT22;18502;43.574;1.276;2022-09-09T08:11:11;18.20;99.90
31979;DHT22;18502;43.574;1.276;2022-09-09T08:13:38;18.30;99.90
31979;DHT22;18502;43.574;1.276;2022-09-09T08:18:35;18.20;99.90
31979;DHT22;18502;43.574;1.276;2022-09-09T08:21:19;18.10;99.90
31979;DHT22;18502;43.574;1.276;2022-09-09T08:23:46;18.10;99.90
31979;DHT22;18502;43.574;1.276;2022-09-09T08:26:20;18.10;99.90
31979;DHT22;18502;43.574;1.276;2022-09-09T08:28:49;18.00;99.90
31979;DHT22;18502;43.574;1.276;2022-09-09T08:31:19;18.10;99.90
31979;DHT22;18502;43.574;1.276;2022-09-09T08:33:45;18.20;99.90
31979;DHT22;18502;43.574;1.276;2022-09-09T08:36:15;18.10;99.90
31979;DHT22;18502;43.574;1.276;2022-09-09T08:38:42;18.50;99.90
31979;DHT22;18502;43.574;1.276;2022-09-09T08:43:41;18.90;99.90
31979;DHT22;18502;43.574;1.276;2022-09-09T08:46:24;18.70;99.90
31979;DHT22;18502;43.574;1.276;2022-09-09T08:49:05;18.60;99.90
31979;DHT22;18502;43.574;1.276;2022-09-09T08:51:38;18.80;99.90
31979;DHT22;18502;43.574;1.276;2022-09-09T08:54:04;19.00;99.90
31979;DHT22;18502;43.574;1.276;2022-09-09T08:56:32;19.50;99.90
31979;DHT22;18502;43.574;1.276;2022-09-09T08:59:00;19.50;99.90
31979;DHT22;18502;43.574;1.276;2022-09-09T09:13:02;19.10;99.90
31979;DHT22;18502;43.574;1.276;2022-09-09T09:15:37;18.80;99.90
31979;DHT22;18502;43.574;1.276;2022-09-09T09:18:05;18.70;99.90
31979;DHT22;18502;43.574;1.276;2022-09-09T09:20:48;18.80;99.90
31979;DHT22;18502;43.574;1.276;2022-09-09T09:23:26;19.00;99.90
31979;DHT22;18502;43.574;1.276;2022-09-09T09:25:59;19.10;99.90
31979;DHT22;18502;43.574;1.276;2022-09-09T09:28:29;19.10;99.90
31979;DHT22;18502;43.574;1.276;2022-09-09T09:35:58;18.70;99.90
31979;DHT22;18502;43.574;1.276;2022-09-09T09:38:27;18.40;99.90
31979;DHT22;18502;43.574;1.276;2022-09-09T09:43:37;18.30;99.90
31979;DHT22;18502;43.574;1.276;2022-09-09T09:46:17;18.30;99.90
31979;DHT22;18502;43.574;1.276;2022-09-09T09:48:44;18.40;99.90
31979;DHT22;18502;43.574;1.276;2022-09-09T09:51:14;18.20;99.90
31979;DHT22;18502;43.574;1.276;2022-09-09T09:53:41;18.00;99.90
31979;DHT22;18502;43.574;1.276;2022-09-09T09:56:10;18.10;99.90
31979;DHT22;18502;43.574;1.276;2022-09-09T10:03:52;18.40;99.90
31979;DHT22;18502;43.574;1.276;2022-09-09T10:06:35;18.70;99.90
31979;DHT22;18502;43.574;1.276;2022-09-09T10:09:27;18.70;99.90
31979;DHT22;18502;43.574;1.276;2022-09-09T10:12:16;18.70;99.90
31979;DHT22;18502;43.574;1.276;2022-09-09T10:22:38;19.30;99.90
31979;DHT22;18502;43.574;1.276;2022-09-09T10:36:58;20.00;99.90
31979;DHT22;18502;43.574;1.276;2022-09-09T10:39:37;19.70;99.90
31979;DHT22;18502;43.574;1.276;2022-09-09T10:42:16;19.50;99.90
31979;DHT22;18502;43.574;1.276;2022-09-09T10:50:15;19.80;99.90
31979;DHT22;18502;43.574;1.276;2022-09-09T10:53:07;19.40;99.90
31979;DHT22;18502;43.574;1.276;2022-09-09T10:55:45;19.00;99.90
31979;DHT22;18502;43.574;1.276;2022-09-09T10:58:27;18.70;99.90
31979;DHT22;18502;43.574;1.276;2022-09-09T11:01:01;18.70;99.90
31979;DHT22;18502;43.574;1.276;2022-09-09T11:03:29;18.90;99.90
31979;DHT22;18502;43.574;1.276;2022-09-09T11:06:06;18.80;99.90
31979;DHT22;18502;43.574;1.276;2022-09-09T11:08:38;18.90;99.90
31979;DHT22;18502;43.574;1.276;2022-09-09T11:12:04;18.70;99.90
31979;DHT22;18502;43.574;1.276;2022-09-09T11:17:02;18.70;99.90
31979;DHT22;18502;43.574;1.276;2022-09-09T11:19:40;19.00;99.90
31979;DHT22;18502;43.574;1.276;2022-09-09T11:22:07;18.80;99.90
31979;DHT22;18502;43.574;1.276;2022-09-09T11:30:21;18.80;99.90
31979;DHT22;18502;43.574;1.276;2022-09-09T11:41:07;19.20;99.90
31979;DHT22;18502;43.574;1.276;2022-09-09T11:43:45;19.60;99.90
31979;DHT22;18502;43.574;1.276;2022-09-09T11:46:14;19.50;99.90
31979;DHT22;18502;43.574;1.276;2022-09-09T11:48:42;19.50;99.90
31979;DHT22;18502;43.574;1.276;2022-09-09T11:51:24;19.80;99.90
31979;DHT22;18502;43.574;1.276;2022-09-09T11:53:53;20.30;99.90
31979;DHT22;18502;43.574;1.276;2022-09-09T11:56:32;20.60;99.90
31979;DHT22;18502;43.574;1.276;2022-09-09T12:01:41;20.90;99.90
31979;DHT22;18502;43.574;1.276;2022-09-09T12:04:28;21.60;99.90
31979;DHT22;18502;43.574;1.276;2022-09-09T12:07:26;22.30;99.90
31979;DHT22;18502;43.574;1.276;2022-09-09T12:09:55;21.70;99.90
31979;DHT22;18502;43.574;1.276;2022-09-09T12:12:37;21.70;99.90
31979;DHT22;18502;43.574;1.276;2022-09-09T12:17:55;21.90;99.90
31979;DHT22;18502;43.574;1.276;2022-09-09T12:20:31;22.30;99.90
31979;DHT22;18502;43.574;1.276;2022-09-09T12:26:13;22.30;99.90
31979;DHT22;18502;43.574;1.276;2022-09-09T12:31:47;23.20;99.90
31979;DHT22;18502;43.574;1.276;2022-09-09T12:39:59;22.20;99.90
31979;DHT22;18502;43.574;1.276;2022-09-09T12:42:26;21.90;99.90
31979;DHT22;18502;43.574;1.276;2022-09-09T12:45:00;22.10;99.90
31979;DHT22;18502;43.574;1.276;2022-09-09T12:47:33;23.40;99.90
31979;DHT22;18502;43.574;1.276;2022-09-09T12:50:02;23.20;99.60
31979;DHT22;18502;43.574;1.276;2022-09-09T12:52:35;22.70;99.90
31979;DHT22;18502;43.574;1.276;2022-09-09T12:55:05;22.80;99.70
31979;DHT22;18502;43.574;1.276;2022-09-09T12:57:36;22.40;98.80
31979;DHT22;18502;43.574;1.276;2022-09-09T13:00:23;22.20;99.90
31979;DHT22;18502;43.574;1.276;2022-09-09T13:02:55;22.10;99.90
31979;DHT22;18502;43.574;1.276;2022-09-09T13:05:24;21.80;99.90
31979;DHT22;18502;43.574;1.276;2022-09-09T13:07:51;22.70;99.90
31979;DHT22;18502;43.574;1.276;2022-09-09T13:10:26;24.90;99.90
31979;DHT22;18502;43.574;1.276;2022-09-09T13:12:54;25.60;96.00
31979;DHT22;18502;43.574;1.276;2022-09-09T13:15:24;24.80;93.50
31979;DHT22;18502;43.574;1.276;2022-09-09T13:18:06;25.90;94.10
31979;DHT22;18502;43.574;1.276;2022-09-09T13:20:36;26.10;92.60
31979;DHT22;18502;43.574;1.276;2022-09-09T13:23:02;25.50;93.80
31979;DHT22;18502;43.574;1.276;2022-09-09T13:25:29;25.60;92.00
31979;DHT22;18502;43.574;1.276;2022-09-09T13:28:00;28.10;91.60
31979;DHT22;18502;43.574;1.276;2022-09-09T13:30:35;26.80;91.00
31979;DHT22;18502;43.574;1.276;2022-09-09T13:35:56;30.20;81.50
31979;DHT22;18502;43.574;1.276;2022-09-09T13:38:23;29.60;79.40
31979;DHT22;18502;43.574;1.276;2022-09-09T13:40:59;31.40;71.40
31979;DHT22;18502;43.574;1.276;2022-09-09T13:43:28;29.60;74.10
31979;DHT22;18502;43.574;1.276;2022-09-09T13:46:00;28.00;77.70
31979;DHT22;18502;43.574;1.276;2022-09-09T13:48:27;26.70;81.90
31979;DHT22;18502;43.574;1.276;2022-09-09T13:51:00;26.40;83.30
31979;DHT22;18502;43.574;1.276;2022-09-09T13:53:27;27.30;79.70
31979;DHT22;18502;43.574;1.276;2022-09-09T13:55:53;26.80;81.40
31979;DHT22;18502;43.574;1.276;2022-09-09T13:58:20;26.80;79.60
31979;DHT22;18502;43.574;1.276;2022-09-09T14:00:47;25.90;83.50
31979;DHT22;18502;43.574;1.276;2022-09-09T14:03:13;25.50;80.70
31979;DHT22;18502;43.574;1.276;2022-09-09T14:05:39;25.90;82.20
31979;DHT22;18502;43.574;1.276;2022-09-09T14:08:06;25.50;81.70
31979;DHT22;18502;43.574;1.276;2022-09-09T14:10:32;26.10;80.20
31979;DHT22;18502;43.574;1.276;2022-09-09T14:13:01;28.40;79.10
31979;DHT22;18502;43.574;1.276;2022-09-09T14:15:26;36.60;60.90
31979;DHT22;18502;43.574;1.276;2022-09-09T14:17:52;36.80;50.00
31979;DHT22;18502;43.574;1.276;2022-09-09T14:20:18;34.20;53.70
31979;DHT22;18502;43.574;1.276;2022-09-09T14:22:44;32.90;52.80
31979;DHT22;18502;43.574;1.276;2022-09-09T14:25:10;33.70;50.70
31979;DHT22;18502;43.574;1.276;2022-09-09T14:27:39;34.30;49.60
31979;DHT22;18502;43.574;1.276;2022-09-09T14:30:05;35.60;48.70
31979;DHT22;18502;43.574;1.276;2022-09-09T14:32:32;33.60;51.00
31979;DHT22;18502;43.574;1.276;2022-09-09T14:34:58;32.00;51.80
31979;DHT22;18502;43.574;1.276;2022-09-09T14:37:24;32.70;52.30
31979;DHT22;18502;43.574;1.276;2022-09-09T14:39:50;29.40;57.10
31979;DHT22;18502;43.574;1.276;2022-09-09T14:42:16;26.90;60.90
31979;DHT22;18502;43.574;1.276;2022-09-09T14:44:42;27.80;60.60
31979;DHT22;18502;43.574;1.276;2022-09-09T14:47:08;28.90;60.10
31979;DHT22;18502;43.574;1.276;2022-09-09T14:49:35;34.40;53.50
31979;DHT22;18502;43.574;1.276;2022-09-09T14:52:01;38.30;46.30
31979;DHT22;18502;43.574;1.276;2022-09-09T14:54:27;40.30;38.70
31979;DHT22;18502;43.574;1.276;2022-09-09T14:56:53;38.50;37.40
31979;DHT22;18502;43.574;1.276;2022-09-09T14:59:19;36.20;42.10
31979;DHT22;18502;43.574;1.276;2022-09-09T15:01:45;31.80;46.90
31979;DHT22;18502;43.574;1.276;2022-09-09T15:04:12;31.50;47.50
31979;DHT22;18502;43.574;1.276;2022-09-09T15:06:38;32.70;46.70
31979;DHT22;18502;43.574;1.276;2022-09-09T15:09:05;32.30;49.40
31979;DHT22;18502;43.574;1.276;2022-09-09T15:11:34;33.70;45.90
31979;DHT22;18502;43.574;1.276;2022-09-09T15:14:07;32.70;46.40
31979;DHT22;18502;43.574;1.276;2022-09-09T15:16:33;33.80;45.90
31979;DHT22;18502;43.574;1.276;2022-09-09T15:19:00;33.30;43.90
31979;DHT22;18502;43.574;1.276;2022-09-09T15:21:28;31.00;48.10
31979;DHT22;18502;43.574;1.276;2022-09-09T15:23:55;32.20;49.10
31979;DHT22;18502;43.574;1.276;2022-09-09T15:26:21;31.20;50.30
31979;DHT22;18502;43.574;1.276;2022-09-09T15:28:48;35.00;45.90
31979;DHT22;18502;43.574;1.276;2022-09-09T15:31:29;36.20;40.90
31979;DHT22;18502;43.574;1.276;2022-09-09T15:33:56;35.70;41.50
31979;DHT22;18502;43.574;1.276;2022-09-09T15:36:37;35.30;43.30
31979;DHT22;18502;43.574;1.276;2022-09-09T15:39:06;33.40;43.60
31979;DHT22;18502;43.574;1.276;2022-09-09T15:41:32;31.30;47.10
31979;DHT22;18502;43.574;1.276;2022-09-09T15:43:59;34.40;42.70
31979;DHT22;18502;43.574;1.276;2022-09-09T15:49:14;33.30;40.60
31979;DHT22;18502;43.574;1.276;2022-09-09T15:51:43;32.10;43.80
31979;DHT22;18502;43.574;1.276;2022-09-09T15:54:14;33.00;42.00
31979;DHT22;18502;43.574;1.276;2022-09-09T15:56:42;33.90;42.60
31979;DHT22;18502;43.574;1.276;2022-09-09T15:59:08;33.00;40.90
31979;DHT22;18502;43.574;1.276;2022-09-09T16:01:35;35.40;38.70
31979;DHT22;18502;43.574;1.276;2022-09-09T16:04:01;34.30;39.30
31979;DHT22;18502;43.574;1.276;2022-09-09T16:06:28;33.90;36.20
31979;DHT22;18502;43.574;1.276;2022-09-09T16:08:55;32.30;39.50
31979;DHT22;18502;43.574;1.276;2022-09-09T16:11:24;31.70;42.60
31979;DHT22;18502;43.574;1.276;2022-09-09T16:13:51;31.90;41.70
31979;DHT22;18502;43.574;1.276;2022-09-09T16:16:20;32.50;41.10
31979;DHT22;18502;43.574;1.276;2022-09-09T16:18:52;32.00;41.20
31979;DHT22;18502;43.574;1.276;2022-09-09T16:21:21;31.30;43.70
31979;DHT22;18502;43.574;1.276;2022-09-09T16:23:50;29.50;45.20
31979;DHT22;18502;43.574;1.276;2022-09-09T16:26:17;27.90;49.30
31979;DHT22;18502;43.574;1.276;2022-09-09T16:28:43;29.20;47.40
31979;DHT22;18502;43.574;1.276;2022-09-09T16:31:12;30.70;45.20
31979;DHT22;18502;43.574;1.276;2022-09-09T16:33:39;31.50;43.20
31979;DHT22;18502;43.574;1.276;2022-09-09T16:36:13;27.80;47.00
31979;DHT22;18502;43.574;1.276;2022-09-09T16:38:40;29.10;47.50
31979;DHT22;18502;43.574;1.276;2022-09-09T16:41:06;27.40;49.30
31979;DHT22;18502;43.574;1.276;2022-09-09T16:43:34;26.20;50.80
31979;DHT22;18502;43.574;1.276;2022-09-09T16:46:00;27.20;51.50
31979;DHT22;18502;43.574;1.276;2022-09-09T16:48:31;26.50;51.60
31979;DHT22;18502;43.574;1.276;2022-09-09T16:51:06;25.90;53.30
31979;DHT22;18502;43.574;1.276;2022-09-09T16:53:33;25.50;54.20
31979;DHT22;18502;43.574;1.276;2022-09-09T16:56:04;25.10;55.20
31979;DHT22;18502;43.574;1.276;2022-09-09T16:58:30;24.60;55.40
31979;DHT22;18502;43.574;1.276;2022-09-09T17:01:00;24.70;55.70
31979;DHT22;18502;43.574;1.276;2022-09-09T17:03:27;24.80;56.60
31979;DHT22;18502;43.574;1.276;2022-09-09T17:05:53;25.00;54.90
31979;DHT22;18502;43.574;1.276;2022-09-09T17:08:18;24.80;55.90
31979;DHT22;18502;43.574;1.276;2022-09-09T17:10:44;26.30;54.80
31979;DHT22;18502;43.574;1.276;2022-09-09T17:13:11;25.20;54.70
31979;DHT22;18502;43.574;1.276;2022-09-09T17:15:42;25.00;55.80
31979;DHT22;18502;43.574;1.276;2022-09-09T17:18:09;24.80;55.80
31979;DHT22;18502;43.574;1.276;2022-09-09T17:20:41;24.90;56.10
31979;DHT22;18502;43.574;1.276;2022-09-09T17:23:11;25.90;55.70
31979;DHT22;18502;43.574;1.276;2022-09-09T17:25:38;26.10;54.70
31979;DHT22;18502;43.574;1.276;2022-09-09T17:28:04;26.50;53.80
31979;DHT22;18502;43.574;1.276;2022-09-09T17:30:34;25.30;55.30
31979;DHT22;18502;43.574;1.276;2022-09-09T17:33:00;24.30;57.40
31979;DHT22;18502;43.574;1.276;2022-09-09T17:35:25;24.30;58.50
31979;DHT22;18502;43.574;1.276;2022-09-09T17:37:53;24.30;58.70
31979;DHT22;18502;43.574;1.276;2022-09-09T17:40:20;24.20;58.10
31979;DHT22;18502;43.574;1.276;2022-09-09T17:42:46;24.50;57.60
31979;DHT22;18502;43.574;1.276;2022-09-09T17:45:13;25.00;55.80
31979;DHT22;18502;43.574;1.276;2022-09-09T17:47:39;24.50;57.20
31979;DHT22;18502;43.574;1.276;2022-09-09T17:50:06;24.20;56.20
31979;DHT22;18502;43.574;1.276;2022-09-09T17:52:32;24.00;57.20
31979;DHT22;18502;43.574;1.276;2022-09-09T17:54:58;24.30;55.60
31979;DHT22;18502;43.574;1.276;2022-09-09T17:57:24;23.90;54.70
31979;DHT22;18502;43.574;1.276;2022-09-09T17:59:50;23.60;54.80
31979;DHT22;18502;43.574;1.276;2022-09-09T18:02:16;23.50;55.20
31979;DHT22;18502;43.574;1.276;2022-09-09T18:04:41;23.30;55.80